Time;durP1;ratioP1;P1;durP2;ratioP2;P2;SDS_P1;SDS_P2;PMS_P1;PMS_P2;Temp;Humidity;BMP_temperature;BMP_pressure;BME280_temperature;BME280_humidity;BME280_pressure;Samples;Min_cycle;Max_cycle;Signal;HPM_P1;HPM_P2
2021/01/14 00:00:23;;;;;;;51.57;21.77;;;0.40;99.90;;;;;;4879525;29;20282;-87
2021/01/14 00:02:49;;;;;;;45.57;20.40;;;-0.80;99.90;;;;;;4879785;29;20185;-87
2021/01/14 00:05:15;;;;;;;43.97;20.50;;;-0.80;99.90;;;;;;4879881;29;20282;-88
2021/01/14 00:07:41;;;;;;;46.10;19.87;;;-0.80;99.90;;;;;;4880865;29;20189;-87
2021/01/14 00:10:09;;;;;;;45.37;19.30;;;0.20;99.90;;;;;;4864589;29;20210;-88
2021/01/14 00:12:35;;;;;;;38.97;18.10;;;-0.80;99.90;;;;;;4880263;29;20232;-88
2021/01/14 00:15:02;;;;;;;48.50;20.43;;;-0.10;99.90;;;;;;4879781;29;20259;-87
2021/01/14 00:17:27;;;;;;;47.43;21.93;;;0.10;99.90;;;;;;4879562;29;20185;-89
2021/01/14 00:19:53;;;;;;;50.07;20.80;;;0.70;99.90;;;;;;4879701;29;20190;-89
2021/01/14 00:22:19;;;;;;;43.33;21.50;;;1.60;99.90;;;;;;4879178;29;20278;-89
2021/01/14 00:24:45;;;;;;;48.20;22.37;;;0.00;99.90;;;;;;4864221;29;20289;-90
2021/01/14 00:27:11;;;;;;;50.17;20.43;;;-0.90;99.90;;;;;;4879120;29;20585;-89
2021/01/14 00:29:37;;;;;;;47.43;21.00;;;-0.30;99.90;;;;;;4864076;29;20216;-90
2021/01/14 00:32:03;;;;;;;51.90;22.70;;;0.30;99.90;;;;;;4863683;29;20186;-89
2021/01/14 00:34:29;;;;;;;47.33;21.73;;;-0.90;99.90;;;;;;4878963;29;20207;-89
2021/01/14 00:39:39;;;;;;;54.43;23.07;;;-0.90;99.90;;;;;;4880090;29;20197;-90
2021/01/14 00:42:04;;;;;;;56.83;22.77;;;1.30;99.90;;;;;;4879130;29;20182;-89
2021/01/14 00:44:30;;;;;;;49.50;22.87;;;-0.90;99.90;;;;;;4864356;29;20195;-88
2021/01/14 00:46:57;;;;;;;50.10;22.10;;;1.00;99.90;;;;;;4863337;29;20186;-89
2021/01/14 00:49:23;;;;;;;52.87;22.80;;;0.00;99.90;;;;;;4880976;29;20182;-90
2021/01/14 00:51:49;;;;;;;44.10;19.23;;;1.00;99.90;;;;;;4863961;29;20632;-89
2021/01/14 00:54:15;;;;;;;48.60;22.60;;;-0.80;99.90;;;;;;4879228;29;20187;-90
2021/01/14 00:56:41;;;;;;;47.77;21.63;;;-0.80;99.90;;;;;;4863386;29;20783;-90
2021/01/14 00:59:07;;;;;;;82.03;49.43;;;-0.40;99.90;;;;;;4879447;29;20265;-90
2021/01/14 01:01:34;;;;;;;52.23;28.53;;;-0.80;99.90;;;;;;4879386;29;20184;-89
2021/01/14 01:04:01;;;;;;;59.77;30.07;;;-0.80;99.90;;;;;;4879685;29;20313;-90
2021/01/14 01:06:34;;;;;;;49.20;24.73;;;-0.80;99.90;;;;;;4879077;29;20192;-90
2021/01/14 01:09:02;;;;;;;46.93;23.57;;;-0.70;99.90;;;;;;4878240;29;20183;-90
2021/01/14 01:11:28;;;;;;;45.70;20.47;;;-0.80;99.90;;;;;;4878180;29;20237;-89
2021/01/14 01:13:54;;;;;;;49.43;23.30;;;-0.60;99.90;;;;;;4862873;29;20204;-90
2021/01/14 01:16:20;;;;;;;49.77;24.33;;;0.40;99.90;;;;;;4877896;29;20639;-89
2021/01/14 01:18:46;;;;;;;41.03;20.30;;;0.10;99.90;;;;;;4878385;29;20711;-89
2021/01/14 01:21:13;;;;;;;44.50;22.47;;;-0.80;99.90;;;;;;4877748;29;20191;-89
2021/01/14 01:23:38;;;;;;;46.97;20.40;;;-0.80;99.90;;;;;;4879410;29;20216;-90
2021/01/14 01:26:04;;;;;;;43.43;21.97;;;0.60;99.90;;;;;;4878075;29;20190;-89
2021/01/14 01:28:30;;;;;;;42.10;20.27;;;0.70;99.90;;;;;;4878843;29;20196;-90
2021/01/14 01:30:56;;;;;;;43.73;22.53;;;0.90;99.90;;;;;;4878034;29;20653;-90
2021/01/14 01:33:26;;;;;;;50.53;21.07;;;-0.80;99.90;;;;;;4877954;29;20185;-90
2021/01/14 01:35:52;;;;;;;44.60;20.97;;;-0.30;99.90;;;;;;4877742;29;20210;-90
2021/01/14 01:38:17;;;;;;;43.67;19.63;;;-0.80;99.90;;;;;;4877797;29;20200;-89
2021/01/14 01:40:43;;;;;;;53.13;22.50;;;-0.80;99.90;;;;;;4877978;29;20186;-89
2021/01/14 01:43:10;;;;;;;52.87;21.20;;;-0.70;99.90;;;;;;4877935;29;20269;-90
2021/01/14 01:45:35;;;;;;;50.23;21.77;;;0.40;99.90;;;;;;4877462;29;20193;-89
2021/01/14 01:48:01;;;;;;;49.13;22.13;;;-0.80;99.90;;;;;;4877875;29;20195;-90
2021/01/14 01:50:27;;;;;;;45.83;22.17;;;-0.70;99.90;;;;;;4861848;29;20637;-90
2021/01/14 01:52:54;;;;;;;51.57;21.40;;;-0.70;99.90;;;;;;4878178;29;20264;-90
2021/01/14 01:55:21;;;;;;;43.67;21.07;;;-0.70;99.90;;;;;;4878976;29;20270;-91
2021/01/14 01:57:48;;;;;;;46.83;22.60;;;-0.50;99.90;;;;;;4878128;29;20270;-90
2021/01/14 02:00:14;;;;;;;52.67;21.77;;;0.80;99.90;;;;;;4877956;29;20666;-91
2021/01/14 02:02:40;;;;;;;49.60;22.33;;;-0.70;99.90;;;;;;4862174;29;20243;-91
2021/01/14 02:05:07;;;;;;;43.50;20.27;;;-0.70;99.90;;;;;;4879437;29;20234;-90
2021/01/14 02:07:36;;;;;;;53.73;21.50;;;-0.70;99.90;;;;;;4865745;29;20225;-90
2021/01/14 02:10:06;;;;;;;49.47;21.13;;;-0.70;99.90;;;;;;4882474;29;20576;-90
2021/01/14 02:12:39;;;;;;;46.60;21.80;;;-0.70;99.90;;;;;;4882203;29;20178;-90
2021/01/14 02:15:06;;;;;;;44.50;20.50;;;-0.70;99.90;;;;;;4881157;29;20268;-90
2021/01/14 02:17:32;;;;;;;54.97;22.63;;;-0.60;99.90;;;;;;4880811;29;20201;-90
2021/01/14 02:20:01;;;;;;;49.00;22.13;;;-0.70;99.90;;;;;;4881374;29;20640;-90
2021/01/14 02:22:37;;;;;;;44.90;20.70;;;0.10;99.90;;;;;;4882219;29;20273;-90
2021/01/14 02:25:12;;;;;;;53.97;22.37;;;1.60;99.90;;;;;;4882768;29;20412;-91
2021/01/14 02:27:39;;;;;;;49.00;20.30;;;-0.80;99.90;;;;;;4880711;29;20273;-90
2021/01/14 02:30:09;;;;;;;53.13;22.73;;;0.90;99.90;;;;;;4882497;29;20192;-89
2021/01/14 02:32:34;;;;;;;52.87;21.93;;;-0.90;99.90;;;;;;4880656;29;20558;-91
2021/01/14 02:35:00;;;;;;;45.40;20.70;;;0.20;99.90;;;;;;4880962;29;20210;-91
2021/01/14 02:37:26;;;;;;;54.70;21.53;;;-0.80;99.90;;;;;;4865449;29;20545;-91
2021/01/14 02:39:52;;;;;;;48.97;21.03;;;0.20;99.90;;;;;;4865552;29;20190;-90
2021/01/14 02:42:17;;;;;;;57.07;22.80;;;-0.80;99.90;;;;;;4883646;29;20190;-89
2021/01/14 02:44:43;;;;;;;53.97;22.17;;;1.60;99.90;;;;;;4868150;29;20292;-90
2021/01/14 02:47:11;;;;;;;51.00;22.57;;;-0.50;99.90;;;;;;4882888;29;20194;-89
2021/01/14 02:49:48;;;;;;;50.17;22.20;;;-0.30;99.90;;;;;;4881943;29;20221;-90
2021/01/14 02:52:14;;;;;;;55.00;22.03;;;-0.90;99.90;;;;;;4881118;29;20244;-90
2021/01/14 02:54:41;;;;;;;52.43;21.07;;;0.50;99.90;;;;;;4865133;29;20236;-90
2021/01/14 02:57:08;;;;;;;45.37;22.23;;;0.80;99.90;;;;;;4880840;29;20197;-90
2021/01/14 02:59:34;;;;;;;51.53;21.97;;;1.00;99.90;;;;;;4864903;29;20192;-90
2021/01/14 03:02:00;;;;;;;55.00;23.73;;;-1.00;99.90;;;;;;4865429;29;20189;-89
2021/01/14 03:04:25;;;;;;;53.90;22.87;;;0.30;99.90;;;;;;4880119;29;20752;-90
2021/01/14 03:06:51;;;;;;;59.10;23.30;;;1.00;99.90;;;;;;4864838;29;20595;-90
2021/01/14 03:09:17;;;;;;;54.53;23.63;;;0.30;99.90;;;;;;4880762;29;20185;-89
2021/01/14 03:11:42;;;;;;;54.60;23.37;;;-0.90;99.90;;;;;;4880170;29;20541;-89
2021/01/14 03:14:08;;;;;;;58.73;23.33;;;0.20;99.90;;;;;;4864968;29;20196;-89
2021/01/14 03:16:38;;;;;;;51.70;21.90;;;1.10;99.90;;;;;;4879346;29;20214;-89
2021/01/14 03:19:04;;;;;;;48.63;20.93;;;-1.00;99.90;;;;;;4879775;29;20204;-90
2021/01/14 03:21:30;;;;;;;58.03;23.47;;;1.10;99.90;;;;;;4879357;29;20205;-90
2021/01/14 03:23:56;;;;;;;53.10;22.63;;;0.50;99.90;;;;;;4864481;29;20190;-90
2021/01/14 03:26:21;;;;;;;50.40;22.27;;;1.00;99.90;;;;;;4880020;29;20201;-89
2021/01/14 03:28:48;;;;;;;52.53;22.70;;;-1.00;99.90;;;;;;4881002;29;20227;-89
2021/01/14 03:31:15;;;;;;;47.97;23.97;;;-0.60;99.90;;;;;;4881341;29;20198;-89
2021/01/14 03:33:42;;;;;;;50.90;23.33;;;-0.90;99.90;;;;;;4879715;29;20276;-89
2021/01/14 03:36:09;;;;;;;50.40;22.77;;;0.80;99.90;;;;;;4881301;29;20273;-88
2021/01/14 03:38:36;;;;;;;59.93;23.07;;;-1.00;99.90;;;;;;4879657;29;20657;-89
2021/01/14 03:41:07;;;;;;;53.00;23.63;;;1.20;99.90;;;;;;4879724;29;20182;-88
2021/01/14 03:43:33;;;;;;;53.40;22.37;;;-1.00;99.90;;;;;;4864896;29;20581;-90
2021/01/14 03:45:59;;;;;;;56.63;22.90;;;-1.00;99.90;;;;;;4880258;29;20225;-88
2021/01/14 03:48:24;;;;;;;55.07;22.80;;;1.10;99.90;;;;;;4864401;29;20215;-89
2021/01/14 03:50:50;;;;;;;49.73;22.43;;;-0.90;99.90;;;;;;4879556;29;20598;-90
2021/01/14 03:53:15;;;;;;;58.73;23.00;;;-0.90;99.90;;;;;;4880162;29;20186;-89
2021/01/14 03:55:41;;;;;;;54.57;22.50;;;-0.90;99.90;;;;;;4864145;29;20228;-90
2021/01/14 03:58:07;;;;;;;48.37;22.13;;;-0.90;99.90;;;;;;4865737;29;20203;-93
2021/01/14 04:00:32;;;;;;;49.90;22.97;;;-0.90;99.90;;;;;;4868703;29;20608;-87
2021/01/14 04:02:58;;;;;;;52.17;24.33;;;1.40;99.90;;;;;;4878456;29;20197;-85
2021/01/14 04:05:24;;;;;;;55.37;21.87;;;-0.90;99.90;;;;;;4902232;29;20218;-87
2021/01/14 04:07:49;;;;;;;54.17;24.77;;;-0.40;99.90;;;;;;4904112;29;20194;-90
2021/01/14 04:10:15;;;;;;;53.40;23.53;;;-0.90;99.90;;;;;;4886718;29;20168;-89
2021/01/14 04:12:41;;;;;;;127.77;48.00;;;1.10;99.90;;;;;;4885272;29;20528;-92
2021/01/14 04:15:07;;;;;;;64.50;27.63;;;-0.90;99.90;;;;;;4891785;29;20232;-91
2021/01/14 04:17:32;;;;;;;59.00;24.83;;;-1.00;99.90;;;;;;4900203;29;20209;-92
2021/01/14 04:19:59;;;;;;;59.23;26.10;;;1.20;99.90;;;;;;4903343;29;20178;-86
2021/01/14 04:22:25;;;;;;;56.20;25.67;;;0.80;99.90;;;;;;4902310;29;20682;-86
2021/01/14 04:24:50;;;;;;;57.43;25.47;;;-0.80;99.90;;;;;;4894425;29;20220;-91
2021/01/14 04:27:16;;;;;;;60.07;23.27;;;-1.00;99.90;;;;;;4863986;29;20197;-92
2021/01/14 04:29:41;;;;;;;59.37;24.33;;;0.00;99.90;;;;;;4878551;29;20269;-92
2021/01/14 04:32:07;;;;;;;58.73;25.07;;;0.20;99.90;;;;;;4879001;29;20206;-92
2021/01/14 04:34:33;;;;;;;54.93;24.03;;;-0.70;99.90;;;;;;4863390;29;20250;-91
2021/01/14 04:37:00;;;;;;;65.43;26.30;;;-0.90;99.90;;;;;;4863120;29;20192;-91
2021/01/14 04:48:01;;;;;;;53.30;22.73;;;-1.00;99.90;;;;;;4906953;23;20246;-91
2021/01/14 04:50:27;;;;;;;55.03;24.27;;;1.10;99.90;;;;;;4842555;29;20191;-91
2021/01/14 04:52:55;;;;;;;54.20;24.40;;;0.20;99.90;;;;;;4843035;29;20635;-90
2021/01/14 04:55:25;;;;;;;49.87;22.07;;;-0.70;99.90;;;;;;4841675;29;20680;-90
2021/01/14 04:57:52;;;;;;;53.57;22.67;;;-0.90;99.90;;;;;;4842782;29;20703;-91
2021/01/14 05:00:20;;;;;;;50.40;23.13;;;0.20;99.90;;;;;;4841792;29;20184;-91
2021/01/14 05:02:52;;;;;;;57.07;22.73;;;-1.00;99.90;;;;;;4838347;29;20187;-90
2021/01/14 05:05:22;;;;;;;51.93;23.07;;;1.20;99.90;;;;;;4828128;29;20547;-90
2021/01/14 05:08:08;;;;;;;55.47;23.47;;;-0.40;99.90;;;;;;4841337;29;20188;-92
2021/01/14 05:10:37;;;;;;;59.93;23.93;;;-0.90;99.90;;;;;;4839971;29;20228;-93
2021/01/14 05:13:04;;;;;;;61.60;26.17;;;-0.80;99.90;;;;;;4839774;29;20644;-93
2021/01/14 05:15:30;;;;;;;57.33;23.97;;;0.10;99.90;;;;;;4847739;29;20719;-91
2021/01/14 05:17:57;;;;;;;57.23;24.13;;;0.20;99.90;;;;;;4839870;29;20218;-95
2021/01/14 05:20:23;;;;;;;64.63;26.27;;;0.90;99.90;;;;;;4841316;29;20280;-93
2021/01/14 05:22:55;;;;;;;62.07;24.20;;;-0.80;99.90;;;;;;4839845;29;20191;-92
2021/01/14 05:25:21;;;;;;;60.30;24.50;;;-0.50;99.90;;;;;;4843774;29;20208;-93
2021/01/14 05:27:46;;;;;;;63.27;29.67;;;0.20;99.90;;;;;;4840182;29;20197;-92
2021/01/14 05:30:12;;;;;;;76.57;37.80;;;1.40;99.90;;;;;;4825082;29;20190;-91
2021/01/14 05:32:41;;;;;;;79.17;35.03;;;-0.70;99.90;;;;;;4840111;29;20198;-92
2021/01/14 05:35:12;;;;;;;70.47;30.23;;;-0.70;99.90;;;;;;4839563;29;20221;-92
2021/01/14 05:37:42;;;;;;;79.70;34.63;;;-0.70;99.90;;;;;;4840524;29;20196;-90
2021/01/14 05:40:13;;;;;;;71.57;35.37;;;-0.70;99.90;;;;;;4840214;29;20194;-93
2021/01/14 05:42:40;;;;;;;98.97;41.63;;;-0.70;99.90;;;;;;4843936;29;20202;-93
2021/01/14 05:45:21;;;;;;;90.13;42.73;;;0.60;99.90;;;;;;4843482;29;20294;-93
2021/01/14 05:47:46;;;;;;;77.30;35.77;;;-0.70;99.90;;;;;;4834910;29;20210;-92
2021/01/14 05:50:12;;;;;;;74.27;33.47;;;-0.70;99.90;;;;;;4828316;29;20207;-91
2021/01/14 05:52:41;;;;;;;78.53;33.40;;;-0.70;99.90;;;;;;4829884;29;20187;-92
2021/01/14 05:55:09;;;;;;;78.63;32.20;;;-0.70;99.90;;;;;;4844463;29;20240;-92
2021/01/14 05:57:39;;;;;;;106.10;44.67;;;-0.70;99.90;;;;;;4845318;29;20194;-94
2021/01/14 06:00:12;;;;;;;100.17;36.37;;;-0.70;99.90;;;;;;4828728;29;20241;-90
2021/01/14 06:02:38;;;;;;;108.57;43.03;;;-0.70;99.90;;;;;;4848860;29;20203;-95
2021/01/14 06:05:28;;;;;;;105.37;36.43;;;-1.00;99.90;;;;;;4834691;29;20207;-92
2021/01/14 06:07:54;;;;;;;101.47;37.67;;;-0.70;99.90;;;;;;4843573;29;20187;-93
2021/01/14 06:10:32;;;;;;;97.97;38.20;;;0.50;99.90;;;;;;4860038;29;20217;-92
2021/01/14 06:12:58;;;;;;;113.23;42.20;;;0.20;99.90;;;;;;4846836;29;20587;-91
2021/01/14 06:15:24;;;;;;;113.57;38.77;;;0.90;99.90;;;;;;4854208;29;20222;-91
2021/01/14 06:17:50;;;;;;;126.27;51.77;;;1.60;99.90;;;;;;4835876;29;20259;-93
2021/01/14 06:20:31;;;;;;;116.07;48.57;;;1.00;99.90;;;;;;4852030;29;20208;-94
2021/01/14 06:22:59;;;;;;;120.93;55.87;;;-0.50;99.90;;;;;;4860664;29;20238;-93
2021/01/14 06:25:26;;;;;;;98.47;37.80;;;2.10;99.90;;;;;;4865121;29;20206;-93
2021/01/14 06:27:55;;;;;;;81.63;34.17;;;1.50;99.90;;;;;;4829156;29;20261;-91
2021/01/14 06:30:24;;;;;;;79.73;35.10;;;1.80;99.90;;;;;;4851125;29;20196;-91
2021/01/14 06:33:03;;;;;;;77.30;34.13;;;-0.60;99.90;;;;;;4859163;29;20187;-90
2021/01/14 06:35:29;;;;;;;70.60;30.53;;;-0.60;99.90;;;;;;4834030;29;20235;-95
2021/01/14 06:37:57;;;;;;;73.90;28.57;;;1.90;99.90;;;;;;4829065;29;20186;-93
2021/01/14 06:40:29;;;;;;;71.57;30.37;;;-0.60;99.90;;;;;;4824771;29;20670;-93
2021/01/14 06:42:57;;;;;;;75.83;30.97;;;-0.60;99.90;;;;;;4824613;29;20189;-93
2021/01/14 06:45:29;;;;;;;88.87;33.63;;;0.50;99.90;;;;;;4825615;29;20555;-93
2021/01/14 06:48:03;;;;;;;84.23;32.50;;;1.70;99.90;;;;;;4826447;29;20192;-96
2021/01/14 06:50:31;;;;;;;77.83;31.00;;;-0.60;99.90;;;;;;4830780;29;20183;-95
2021/01/14 06:53:15;;;;;;;82.43;32.73;;;-0.50;99.90;;;;;;4833855;29;20189;-94
2021/01/14 06:55:41;;;;;;;74.50;32.80;;;1.70;99.90;;;;;;4827524;29;20215;-95
2021/01/14 06:58:12;;;;;;;77.03;32.10;;;-0.60;99.90;;;;;;4826186;29;20192;-94
2021/01/14 07:00:42;;;;;;;84.57;32.87;;;-1.70;99.90;;;;;;4826126;29;20190;-91
2021/01/14 07:03:18;;;;;;;72.37;30.40;;;1.60;99.90;;;;;;4826817;29;20281;-94
2021/01/14 07:05:43;;;;;;;76.43;33.03;;;0.20;99.90;;;;;;4856565;29;20216;-94
2021/01/14 07:08:37;;;;;;;79.20;32.90;;;-0.10;99.90;;;;;;4851034;29;20187;-92
2021/01/14 07:11:16;;;;;;;73.17;31.63;;;-0.50;99.90;;;;;;4848748;29;20654;-93
2021/01/14 07:13:51;;;;;;;77.87;31.47;;;1.40;99.90;;;;;;4844138;29;20229;-92
2021/01/14 07:16:21;;;;;;;88.37;34.80;;;0.50;99.90;;;;;;4844329;29;20215;-92
2021/01/14 07:18:48;;;;;;;110.50;42.13;;;-0.60;99.90;;;;;;4828398;29;20191;-91
2021/01/14 07:21:26;;;;;;;115.70;43.37;;;-0.30;99.90;;;;;;4828660;29;20199;-91
2021/01/14 07:24:00;;;;;;;98.30;37.77;;;-0.60;99.90;;;;;;4843874;29;20192;-93
2021/01/14 07:26:29;;;;;;;85.33;34.33;;;-0.60;99.90;;;;;;4843952;29;20281;-93
2021/01/14 07:28:55;;;;;;;87.47;34.93;;;0.70;99.90;;;;;;4843998;29;20636;-95
2021/01/14 07:31:26;;;;;;;92.53;38.00;;;1.10;99.90;;;;;;4847123;29;20203;-92
2021/01/14 07:33:53;;;;;;;91.93;35.63;;;1.20;99.90;;;;;;4850874;29;20185;-92
2021/01/14 07:36:22;;;;;;;81.77;34.17;;;0.00;99.90;;;;;;4850252;29;20641;-94
2021/01/14 07:38:53;;;;;;;83.40;33.30;;;-0.60;99.90;;;;;;4843682;29;20195;-95
2021/01/14 07:41:18;;;;;;;78.30;29.53;;;-0.50;99.90;;;;;;4829559;29;20191;-92
2021/01/14 07:43:45;;;;;;;85.10;33.83;;;0.70;99.90;;;;;;4844600;29;20190;-96
2021/01/14 07:46:24;;;;;;;85.00;32.53;;;1.10;99.90;;;;;;4844569;29;20274;-92
2021/01/14 07:48:52;;;;;;;89.20;34.30;;;-0.50;99.90;;;;;;4842954;29;20235;-93
2021/01/14 07:51:19;;;;;;;75.70;31.10;;;2.40;99.90;;;;;;4830215;29;20314;-95
2021/01/14 07:54:06;;;;;;;73.03;30.97;;;0.50;99.90;;;;;;4845866;29;20185;-94
2021/01/14 07:56:32;;;;;;;81.93;33.17;;;0.40;99.90;;;;;;4860649;29;20709;-95
2021/01/14 07:59:00;;;;;;;86.80;33.63;;;-0.40;99.90;;;;;;4867543;29;20212;-94
2021/01/14 08:01:28;;;;;;;76.57;33.13;;;-0.30;99.90;;;;;;4864528;29;20183;-95
2021/01/14 08:04:26;;;;;;;81.50;33.07;;;1.30;99.90;;;;;;4850420;29;20666;-94
2021/01/14 08:06:52;;;;;;;76.60;30.27;;;-0.30;99.90;;;;;;4840051;29;20257;-94
2021/01/14 08:09:18;;;;;;;74.30;30.63;;;1.80;99.90;;;;;;4854832;29;20186;-93
2021/01/14 08:11:47;;;;;;;74.40;31.73;;;2.30;99.90;;;;;;4858072;29;20197;-90
2021/01/14 08:14:17;;;;;;;68.40;29.20;;;2.10;99.90;;;;;;4851378;29;20379;-94
2021/01/14 08:16:47;;;;;;;73.67;32.57;;;-0.40;99.90;;;;;;4856201;29;20224;-95
2021/01/14 08:19:28;;;;;;;74.47;32.57;;;0.30;99.90;;;;;;4857989;29;20657;-94
2021/01/14 08:22:02;;;;;;;71.03;30.77;;;-0.40;99.90;;;;;;4862125;29;20223;-93
2021/01/14 08:24:51;;;;;;;72.80;30.40;;;-0.40;99.90;;;;;;4862685;29;20187;-95
2021/01/14 08:27:37;;;;;;;84.10;34.63;;;-0.30;99.90;;;;;;4861680;29;20217;-91
2021/01/14 08:30:15;;;;;;;78.13;31.60;;;1.20;99.90;;;;;;4845254;29;20232;-92
2021/01/14 08:32:59;;;;;;;65.87;28.30;;;-0.30;99.90;;;;;;4843781;29;20193;-90
2021/01/14 08:35:31;;;;;;;70.70;30.10;;;-0.20;99.90;;;;;;4842290;29;20222;-90
2021/01/14 08:37:57;;;;;;;79.13;32.47;;;-0.20;99.90;;;;;;4844754;29;20641;-94
2021/01/14 08:40:23;;;;;;;71.10;29.33;;;-0.10;99.90;;;;;;4843610;29;20634;-89
2021/01/14 08:42:59;;;;;;;74.43;28.77;;;-2.00;99.90;;;;;;4841750;29;20200;-96
2021/01/14 08:45:28;;;;;;;81.87;31.37;;;-0.20;99.90;;;;;;4841155;29;20274;-91
2021/01/14 08:48:04;;;;;;;79.03;30.07;;;-0.20;99.90;;;;;;4841683;29;20220;-92
2021/01/14 08:50:40;;;;;;;79.47;32.40;;;-0.10;99.90;;;;;;4843185;29;20669;-91
2021/01/14 08:53:09;;;;;;;68.93;28.37;;;0.00;99.90;;;;;;4842919;29;20185;-91
2021/01/14 08:55:35;;;;;;;62.73;27.33;;;-0.10;99.90;;;;;;4841677;29;20222;-91
2021/01/14 08:58:05;;;;;;;63.40;26.70;;;-0.10;99.90;;;;;;4843316;29;20634;-91
2021/01/14 09:00:31;;;;;;;62.57;29.47;;;1.80;99.90;;;;;;4827786;29;20198;-90
2021/01/14 09:02:59;;;;;;;68.37;28.37;;;1.80;99.90;;;;;;4842135;29;20191;-90
2021/01/14 09:05:28;;;;;;;61.50;27.13;;;-0.10;99.90;;;;;;4841726;29;20496;-90
2021/01/14 09:08:09;;;;;;;62.60;27.50;;;0.20;99.90;;;;;;4847730;29;20180;-93
2021/01/14 09:10:44;;;;;;;69.97;28.67;;;0.00;99.90;;;;;;4844491;29;20282;-92
2021/01/14 09:13:18;;;;;;;55.07;24.23;;;0.60;99.90;;;;;;4846757;29;20644;-91
2021/01/14 09:15:45;;;;;;;55.17;23.97;;;1.50;99.90;;;;;;4848005;29;20309;-93
2021/01/14 09:18:12;;;;;;;52.90;25.30;;;2.40;99.90;;;;;;4853403;29;20186;-93
2021/01/14 09:20:41;;;;;;;59.67;23.53;;;0.80;99.90;;;;;;4861586;29;20173;-93
2021/01/14 09:23:17;;;;;;;55.77;26.03;;;1.50;99.90;;;;;;4927434;23;20237;-93
2021/01/14 09:25:47;;;;;;;68.03;30.17;;;0.20;99.90;;;;;;4884675;29;20185;-93
2021/01/14 09:28:13;;;;;;;54.57;25.97;;;1.60;99.90;;;;;;4884450;29;20181;-93
2021/01/14 09:30:39;;;;;;;52.60;23.17;;;2.30;99.90;;;;;;4882836;29;20262;-95
2021/01/14 09:33:07;;;;;;;64.27;24.17;;;1.30;99.90;;;;;;4875280;29;20198;-93
2021/01/14 09:35:33;;;;;;;54.60;23.07;;;2.50;99.90;;;;;;4877041;29;20208;-87
2021/01/14 09:37:59;;;;;;;50.03;21.73;;;2.90;99.90;;;;;;4882876;29;20207;-88
2021/01/14 09:40:25;;;;;;;47.20;21.83;;;1.40;99.90;;;;;;4884475;29;20182;-92
2021/01/14 09:42:52;;;;;;;48.43;21.23;;;1.90;99.90;;;;;;4850753;29;20178;-93
2021/01/14 09:45:21;;;;;;;51.87;20.60;;;2.40;99.90;;;;;;4862972;29;20198;-90
2021/01/14 09:47:54;;;;;;;52.23;21.53;;;0.50;99.90;;;;;;4875253;29;20194;-90
2021/01/14 09:50:24;;;;;;;62.23;26.27;;;2.10;99.90;;;;;;4869564;29;20209;-89
2021/01/14 09:52:50;;;;;;;57.57;24.20;;;-0.40;99.90;;;;;;4862008;29;20187;-91
2021/01/14 09:55:16;;;;;;;48.93;20.23;;;2.70;99.90;;;;;;4861417;29;20220;-93
2021/01/14 09:57:50;;;;;;;52.17;21.53;;;1.40;99.90;;;;;;4845656;29;20240;-94
2021/01/14 10:00:21;;;;;;;48.40;21.73;;;0.20;99.90;;;;;;4860700;29;20499;-90
2021/01/14 10:02:51;;;;;;;50.90;23.23;;;0.40;99.90;;;;;;4863414;29;20246;-93
2021/01/14 10:05:19;;;;;;;43.43;20.10;;;0.10;99.90;;;;;;4861569;29;20236;-92
2021/01/14 10:07:51;;;;;;;43.83;19.23;;;1.70;99.90;;;;;;4847822;29;20204;-94
2021/01/14 10:10:22;;;;;;;41.30;17.57;;;2.20;99.90;;;;;;4871705;29;20190;-94
2021/01/14 10:12:58;;;;;;;43.80;18.23;;;0.10;99.90;;;;;;4866504;29;20194;-96
2021/01/14 10:15:24;;;;;;;43.27;18.67;;;2.40;99.90;;;;;;4868774;29;20220;-94
2021/01/14 10:17:49;;;;;;;42.93;17.10;;;1.90;99.90;;;;;;4863419;29;20183;-93
2021/01/14 10:20:15;;;;;;;43.53;19.87;;;0.00;99.90;;;;;;4862425;29;20658;-92
2021/01/14 10:22:52;;;;;;;49.93;20.33;;;2.70;99.90;;;;;;4860785;29;20239;-93
2021/01/14 10:25:19;;;;;;;45.10;18.47;;;-1.20;99.90;;;;;;4865829;29;20257;-95
2021/01/14 10:28:11;;;;;;;46.43;18.80;;;-0.90;99.90;;;;;;4869079;29;20186;-91
2021/01/14 10:30:43;;;;;;;40.13;19.00;;;-0.30;99.90;;;;;;4868094;29;20182;-94
2021/01/14 10:33:09;;;;;;;35.90;14.10;;;-0.20;99.90;;;;;;4868462;29;20273;-94
2021/01/14 10:35:36;;;;;;;33.70;13.03;;;1.90;99.90;;;;;;4884168;29;20680;-87
2021/01/14 10:38:07;;;;;;;35.93;14.47;;;-0.10;99.90;;;;;;4884353;29;20194;-92
2021/01/14 10:40:41;;;;;;;31.60;13.20;;;-0.30;99.90;;;;;;4888130;29;20146;-94
2021/01/14 10:43:14;;;;;;;30.90;13.83;;;-0.40;99.90;;;;;;4883921;29;20176;-92
2021/01/14 10:45:44;;;;;;;35.00;14.27;;;1.00;99.90;;;;;;4882669;29;20196;-92
2021/01/14 10:48:11;;;;;;;38.97;15.70;;;2.10;99.90;;;;;;4884091;29;20187;-93
2021/01/14 10:50:47;;;;;;;36.37;15.57;;;-1.80;99.90;;;;;;4882482;29;20186;-93
2021/01/14 10:53:22;;;;;;;46.30;15.80;;;-0.40;99.90;;;;;;4881884;29;20183;-93
2021/01/14 10:56:08;;;;;;;35.67;16.00;;;-1.70;99.90;;;;;;4891028;29;20209;-94
2021/01/14 10:58:42;;;;;;;39.10;15.23;;;-0.40;99.90;;;;;;4890541;29;20185;-93
2021/01/14 11:01:15;;;;;;;38.87;15.23;;;2.50;99.90;;;;;;4887542;29;20241;-95
2021/01/14 11:03:41;;;;;;;46.20;18.50;;;0.00;99.90;;;;;;4924531;23;21053;-93
2021/01/14 11:06:07;;;;;;;46.80;19.23;;;-0.20;99.90;;;;;;4870885;29;20554;-94
2021/01/14 11:08:46;;;;;;;41.63;16.67;;;1.00;99.90;;;;;;4869274;29;20193;-96
2021/01/14 11:11:14;;;;;;;47.13;19.43;;;0.20;99.90;;;;;;4871162;29;20214;-96
2021/01/14 11:13:47;;;;;;;38.07;16.17;;;2.50;99.90;;;;;;4875841;29;20197;-95
2021/01/14 11:16:14;;;;;;;49.33;19.50;;;-0.20;99.90;;;;;;4873068;29;20290;-96
2021/01/14 11:18:42;;;;;;;51.20;19.67;;;0.00;99.90;;;;;;4873046;29;20191;-96
2021/01/14 11:21:12;;;;;;;41.40;16.67;;;2.80;99.90;;;;;;4874236;29;20281;-95
2021/01/14 11:26:08;;;;;;;44.30;17.57;;;-0.20;99.90;;;;;;4853364;29;20673;-94
2021/01/14 11:28:41;;;;;;;41.73;16.37;;;2.30;99.90;;;;;;5074331;23;20245;-94
2021/01/14 11:31:07;;;;;;;41.83;19.10;;;0.60;99.90;;;;;;4897134;29;20246;-95
2021/01/14 11:33:36;;;;;;;39.57;17.50;;;1.60;99.90;;;;;;4889403;29;20203;-96
2021/01/14 11:36:01;;;;;;;50.20;18.20;;;2.60;99.90;;;;;;4896935;29;20213;-92
2021/01/14 11:38:28;;;;;;;38.40;16.83;;;-0.20;99.90;;;;;;4921388;23;20283;-96
2021/01/14 11:40:54;;;;;;;31.83;14.57;;;1.20;99.90;;;;;;4891920;29;20239;-94
2021/01/14 11:43:20;;;;;;;38.77;15.20;;;2.40;99.90;;;;;;4870780;29;20186;-94
2021/01/14 11:45:48;;;;;;;35.47;13.37;;;-0.30;99.90;;;;;;4883935;29;20192;-96
2021/01/14 11:48:14;;;;;;;25.53;12.17;;;0.00;99.90;;;;;;4888149;29;20245;-95
2021/01/14 11:50:41;;;;;;;27.37;13.63;;;1.80;99.90;;;;;;4896053;29;20631;-93
2021/01/14 11:53:09;;;;;;;35.63;16.37;;;2.80;99.90;;;;;;4888254;29;20185;-96
2021/01/14 11:58:06;;;;;;;31.33;13.73;;;-0.20;99.90;;;;;;4865911;29;20235;-96
2021/01/14 12:00:32;;;;;;;32.93;14.97;;;-0.60;99.90;;;;;;4856792;29;20187;-96
2021/01/14 12:02:57;;;;;;;33.67;15.33;;;3.00;99.90;;;;;;4860130;29;20202;-91
2021/01/14 12:05:23;;;;;;;30.93;13.83;;;-0.40;99.90;;;;;;4861665;29;20189;-94
2021/01/14 12:07:52;;;;;;;30.23;14.47;;;1.90;99.90;;;;;;4861789;29;20182;-95
2021/01/14 12:12:56;;;;;;;32.00;14.23;;;-0.40;99.90;;;;;;4992588;23;20239;-95
2021/01/14 12:15:21;;;;;;;30.10;14.93;;;-0.30;99.90;;;;;;5109634;23;20259;-93
2021/01/14 12:17:51;;;;;;;39.30;16.20;;;-0.10;99.90;;;;;;5149968;23;20222;31
2021/01/14 12:28:00;;;;;;;33.20;16.93;;;-0.50;99.90;;;;;;4830908;29;20206;-96
2021/01/14 12:30:33;;;;;;;44.10;21.30;;;3.10;99.90;;;;;;5150249;23;20230;31
2021/01/14 12:33:08;;;;;;;;;;;;;;;;;;;;;
2021/01/14 12:43:24;;;;;;;40.93;18.73;;;-0.60;99.90;;;;;;5017097;23;20264;-95
2021/01/14 12:45:51;;;;;;;48.97;20.77;;;2.40;99.90;;;;;;4855115;29;20278;-93
2021/01/14 12:48:29;;;;;;;43.27;19.70;;;2.30;99.90;;;;;;4864060;29;20196;-96
2021/01/14 12:50:55;;;;;;;53.77;23.83;;;-0.30;99.90;;;;;;4866888;29;20214;-95
2021/01/14 12:53:21;;;;;;;47.93;21.20;;;0.20;99.90;;;;;;4858508;29;20188;-96
2021/01/14 12:55:46;;;;;;;37.97;17.57;;;0.30;99.90;;;;;;4858853;29;20691;-96
2021/01/14 12:58:15;;;;;;;39.00;18.37;;;2.00;99.90;;;;;;4857302;29;20189;-96
2021/01/14 13:00:40;;;;;;;46.63;21.03;;;2.20;99.90;;;;;;4867465;29;20187;-96
2021/01/14 13:03:06;;;;;;;37.83;16.83;;;1.40;99.90;;;;;;4861691;29;20183;-95
2021/01/14 13:05:32;;;;;;;45.40;19.03;;;-0.30;99.90;;;;;;4838030;29;20679;-94
2021/01/14 13:08:01;;;;;;;52.93;23.93;;;1.10;99.90;;;;;;4876257;24;20255;-96
2021/01/14 13:10:35;;;;;;;47.67;21.80;;;0.20;99.90;;;;;;4847595;29;20195;-96
2021/01/14 13:15:53;;;;;;;54.77;23.70;;;-0.60;99.90;;;;;;4975357;23;20238;-95
2021/01/14 13:21:52;;;;;;;56.47;25.50;;;-0.70;99.90;;;;;;5430130;23;20298;31